Главная страница
METAR-TAF:

METAR-TAF

Аэропорты :

Жешув, Польша

широта: 50-06N, долгота: 022-03E, высота над уровнем моря: 200 м

Текущие метеонаблюдения

Эта сводка был подготовлена 38 минут назад, в 21:00 UTC
Ветер 3 Узел от западный
Температура 8°C
Влажность 66%
Давление 1029 hPa
Видимость 10 км и более
Нет облачности ниже 1500 м, и нет кучево-дождевой облачности

METAR: EPRZ 182100Z 27003KT CAVOK 08/02 Q1029

Время: 23:38 (21:38 UTC)

Прогноз

Эта сводка был подготовлена 4 часа и 8 минут назад, в 17:30 UTC
Прогноз действительный с 18-го 18 UTC до 19-го 18 UTC
Ветер 5 Узел от северный
Видимость 10 км и более
Нет облачности ниже 1500 м, и нет кучево-дождевой облачности

TAF: EPRZ 181730Z 1818/1918 01005KT CAVOK

Метеонаблюдения и прогнозы для более 4000 аэропортов (сводки METAR и TAF).

Имеющиеся станции представлены на карте желтыми и красными точками.

Чтобы увидеть название станции, наведите на нее мышь.

Затем щелкните, чтобы увидеть метеонаблюдения и метеопрогнозы.

Управление картой: чтобы увеличить масштаб, щелкните зеленые кнопки с черным крестиком; чтобы уменьшить масштаб, щелкните зеленую кнопку с тире; для просмотра соседних карт щелкайте зеленые стрелки.


METAR-TAF: